map of LGQ home
LGQ - Airport
Location
City:  Nueva Loja, Sucumbíos, Ecuador
Near (Alt.):Lago Agrio
Name:Lago Agrio
ICAO:SENL
IATA:LGQ

Details
Type:Airport (Aerodrome, Airfield)
Use:Public/Civil
Latitude:0°05'33"N (0.092439)
Longitude:76°52'10"W (-76.869313)
Datum:WGS 1984
Elevation:982 ft (299 m)
Variation:4.81°W (WMM2015 magnetic declination)
-0.16° annual change
Runways:1
Longest:7569 × 148 ft (2307 × 45 m), paved

Time
Time Zone:UTC-5
Local Time:

Weather
METAR:SENL 141600Z 34004KT 9999 FEW020 SCT100 29/23 Q1012 RMK A2990

Related Locations
Nearby:
Farthest:RGT: 12388 mi / 19937 km
Rengat [Japura], RI, ID

Find:

   beyond  
but within

Other Information
Maps:
NOTAMs:
Links:
Sources:

  
  • flag of Ecuador
  • flag of Sucumbíos
  

Airport Diagram

Airport diagram for LGQ

Larger airport diagram (OBSOLETE) from NGA

Sectional Chart

Flight Planning
at skyvector.com

Satellite Image

Google Maps Satellite view

 

Copyright © 2004-2018 Karl L. Swartz. All rights reserved.
The Great Circle Mapper name and logo are trademarks of the Great Circle Mapper.
All other trademarks mentioned herein belong to their respective owners.
Please see credits for attibutions and further copyright information.

  Follow gcmap on Facebook Follow gcmap on Twitter Follow gcmap on Google+ GCmap on LinkedIn

hCard Microformat

Geo Microformat